Butts AAF (Fort Carson) Air Field
KFCS : now visible

Airfield :











YOU CAN JOIN US ON...

 
LOGIN :

Register | Disclaimer

   EN    FR    IT 

 









Legend :    VFR   Marginal VFR   IFR   Intensive IFR   Very Intensive IFR
Visi :
Ceiling :
>= 8 km
>= 3000ft
5 to 8 km
1000 to 3000 ft
1500m to 5 km
500 to 1000 ft
800 to 1500m
200 to 500 ft
< 800m
< 200 ft
Symbols :   Thunderstorms  Fog  Heavy snow  Heavy precipitations  Wind > 20 kt






- Airport Elevation : 5838 ft


KFCS - Butts AAF (Fort Carson) Air Field

CURRENT METAR :
  • 300658Z AUTO 33006KT 10SM CLR M06/M13 A3043 RMK AO2 SLP357 T10621127 400581079 $

EXPIRED METARs :
  • 300558Z AUTO 33007KT 10SM CLR M08/M13 A3044 RMK AO2 SLP371 T10791135 10006 21079 58000 $
  • 300458Z AUTO 21006KT 10SM CLR M02/M12 A3044 RMK AO2 SLP355 T10241117 $

TAF TAF KFCS
Valid from the 30 at 05:00 until the 01 at 11:00 UTC


300504Z 3005/0111 VRB06KT 9999 SKC QNH3044INS TX10/3021Z TNM08/3014Z
KZDV FIR / North America



MET'MAP, your aeronautical weather chart ! - Copyright ORBIFLY December 2007 - Disclaimer

ORBIFLY MET'MAP TEAM :

Programming & Development : Alexandra Zaïnal
Concept & original design : Baudouin d'Aumeries
Assistance for programming : Marc-Olivier Méhu
Technical & hardware support : Manuel Goepfert

Contact : metmap@orbifly.com




SOURCES & CREDITS :

   NOAA       Earth
Advisory